Jamul (75, 524) Station Data

Red Flag Warning: No
Fire Weather Zone: 250
SDGE Region: Eastern
Lat/Lon: 32.714/-116.869

Observations

Time Wind Speed/Gust Temp(F) RH Fuel Moist Fuel Temp(F) Dewpt(F) Tmax(F) Tmin(F) Accum Precip 10-min Precip SL Press(mb)
4/26 2:40am 351 3 G 4 52° 79% - - 46° 53.7° 51° - - -
4/26 2:30am 327 3 G 4 52° 78% - - 45° 53.7° 51° - - -
4/26 2:20am 345 2 G 3 52° 77% - - 45° 53.7° 51° - - -
4/26 2:10am 342 1 G 3 51° 78% - - 45° 53.7° 51° - - -
4/26 2:00am 340 3 G 5 52° 78% - - 45° 53.7° 51° - - -
4/26 1:50am 312 1 G 3 52° 77% - - 45° 53.7° 51.5° - - -
4/26 1:40am 132 0 G 1 52° 76% - - 45° 53.7° 52° - - -
4/26 1:30am 290 1 G 2 52° 76% - - 45° 53.7° 52.1° - - -
4/26 1:20am 100 3 G 4 52° 77% - - 45° 53.7° 52.1° - - -
4/26 1:10am 116 4 G 5 52° 78% - - 46° 53.7° 52.1° - - -
4/26 1:00am 115 2 G 4 52° 78% - - 46° 53.7° 52.1° - - -
4/26 12:50am 118 1 G 2 53° 77% - - 46° 53.7° 52.3° - - -
4/26 12:40am 126 2 G 3 53° 75% - - 45° 53.7° 52.3° - - -
4/26 12:30am 128 2 G 3 53° 75% - - 46° 53.7° 52.3° - - -
4/26 12:20am 206 2 G 3 53° 75% - - 45° 53.6° 52.3° - - -
4/26 12:10am 71 1 G 3 53° 74% - - 45° 53.6° 52.5° - - -
4/26 12:00am 71 1 G 2 54° 74% - - 45° 67.1° 53.1° - - -
4/25 11:50pm 66 1 G 2 53° 75% - - 46° 67.1° 53.2° - - -
4/25 11:40pm 107 1 G 2 54° 76% - - 46° 67.1° 53.2° - - -
4/25 11:30pm 153 1 G 3 53° 76% - - 46° 67.1° 53.2° - - -
4/25 11:20pm 139 2 G 3 54° 76% - - 46° 67.1° 53.2° - - -
4/25 11:10pm 135 2 G 4 54° 76% - - 46° 67.1° 53.2° - - -
4/25 11:00pm 157 2 G 4 54° 75% - - 46° 67.1° 53.5° - - -
4/25 10:50pm 138 3 G 4 55° 73% - - 46° 67.1° 54° - - -
4/25 10:40pm 127 3 G 3 55° 73% - - 46° 67.1° 54.5° - - -
4/25 10:30pm 136 2 G 3 55° 73% - - 46° 67.1° 54.5° - - -
4/25 10:20pm 148 3 G 5 55° 72% - - 46° 67.1° 54.8° - - -
4/25 10:10pm 144 2 G 4 56° 73% - - 47° 67.1° 55.2° - - -
4/25 10:00pm 126 2 G 3 56° 73% - - 48° 67.1° 55.3° - - -
4/25 9:50pm 81 2 G 4 57° 74% - - 49° 67.1° 55.3° - - -
4/25 9:40pm 134 1 G 2 57° 74% - - 49° 67.1° 55.3° - - -
4/25 9:30pm 178 0 G 1 57° 74% - - 49° 67.1° 55.3° - - -
4/25 9:20pm 137 2 G 2 57° 73% - - 49° 67.1° 55.3° - - -
4/25 9:10pm 151 1 G 2 58° 72% - - 49° 67.1° 55.3° - - -
4/25 9:00pm 289 1 G 2 58° 71% - - 49° 67.1° 55.3° - - -
4/25 8:50pm 274 1 G 2 58° 71% - - 49° 67.1° 55.3° - - -
4/25 8:40pm 224 0 G 2 58° 71% - - 49° 67.1° 55.3° - - -
4/25 8:30pm 115 2 G 3 58° 70% - - 48° 67.1° 55.3° - - -
4/25 8:20pm 168 2 G 3 59° 69% - - 48° 67.1° 55.3° - - -
4/25 8:10pm 243 2 G 4 59° 67% - - 48° 67.1° 55.3° - - -
4/25 8:00pm 240 2 G 4 59° 62% - - 46° 67.1° 55.3° - - -
4/25 7:50pm 288 1 G 4 60° 59% - - 46° 67.1° 55.3° - - -
4/25 7:40pm 276 1 G 3 60° 58% - - 46° 67.1° 55.3° - - -
4/25 7:30pm 270 3 G 6 61° 58% - - 46° 67.1° 55.3° - - -
4/25 7:20pm 292 4 G 7 61° 56% - - 46° 67.1° 55.3° - - -
4/25 7:10pm 309 6 G 8 61° 56% - - 46° 67.1° 55.3° - - -
4/25 7:00pm 304 4 G 7 62° 56% - - 46° 67.1° 55.3° - - -
4/25 6:50pm 286 5 G 8 62° 55% - - 46° 67.1° 55.3° - - -
4/25 6:40pm 286 5 G 8 62° 55% - - 46° 67.1° 55.3° - - -
4/25 6:30pm 289 5 G 10 62° 55% - - 46° 67.1° 55.3° - - -
4/25 6:20pm 284 6 G 10 62° 56% - - 46° 67.1° 55.3° - - -
4/25 6:10pm 301 6 G 11 63° 57% - - 47° 67.1° 55.3° - - -
4/25 6:00pm 298 7 G 12 63° 57% - - 47° 67.1° 55.3° - - -
4/25 5:50pm 283 8 G 14 63° 59% - - 48° 67.1° 55.3° - - -
4/25 5:40pm 283 9 G 14 63° 59% - - 49° 67.1° 55.3° - - -
4/25 5:30pm 271 6 G 13 63° 61% - - 49° 67.1° 55.3° - - -
4/25 5:20pm 273 7 G 15 62° 62% - - 50° 67.1° 55.3° - - -
4/25 5:10pm 280 8 G 12 63° 62% - - 49° 67.1° 55.3° - - -
4/25 5:00pm 281 6 G 15 63° 61% - - 50° 67.1° 55.3° - - -
4/25 4:50pm 268 6 G 12 63° 62% - - 50° 67.1° 55.3° - - -
4/25 4:40pm 270 5 G 9 64° 61% - - 50° 67.1° 55.3° - - -
4/25 4:30pm 274 6 G 10 64° 60% - - 50° 67.1° 55.3° - - -
4/25 4:20pm 286 8 G 15 64° 58% - - 49° 67.1° 55.3° - - -
4/25 4:10pm 291 8 G 13 64° 58% - - 49° 67.1° 55.3° - - -
4/25 4:00pm 280 7 G 13 65° 57% - - 49° 67.1° 55.3° - - -
4/25 3:50pm 294 7 G 15 65° 58% - - 50° 67.1° 55.3° - - -
4/25 3:40pm 268 7 G 12 65° 58% - - 50° 67.1° 55.3° - - -
4/25 3:30pm 252 6 G 13 64° 61% - - 50° 67.1° 55.3° - - -
4/25 3:20pm 244 7 G 14 64° 60% - - 50° 67.1° 55.3° - - -
4/25 3:10pm 242 7 G 13 64° 58% - - 49° 67.1° 55.3° - - -
4/25 3:00pm 242 7 G 15 64° 58% - - 50° 67.1° 55.3° - - -
4/25 2:50pm 270 6 G 11 65° 57% - - 49° 67.1° 55.3° - - -
4/25 2:40pm 290 6 G 10 65° 55% - - 49° 67.1° 55.3° - - -
4/25 2:30pm 308 7 G 13 65° 56% - - 49° 67.1° 55.3° - - -
4/25 2:20pm 302 8 G 14 66° 55% - - 49° 67.1° 55.3° - - -
4/25 2:10pm 289 7 G 14 66° 54% - - 49° 67.1° 55.3° - - -
4/25 2:00pm 275 7 G 13 66° 54% - - 49° 67.1° 55.3° - - -
4/25 1:50pm 301 8 G 14 66° 53% - - 49° 67.1° 55.3° - - -
4/25 1:40pm 278 6 G 11 66° 55% - - 49° 67.1° 55.3° - - -
4/25 1:30pm 267 7 G 15 66° 55% - - 49° 67.1° 55.3° - - -
4/25 1:20pm 298 5 G 11 65° 56% - - 49° 67.1° 55.3° - - -
4/25 1:10pm 282 7 G 12 65° 57% - - 50° 67.1° 55.3° - - -
4/25 1:00pm 289 7 G 13 65° 56% - - 49° 67.1° 55.3° - - -
4/25 12:50pm 310 8 G 16 65° 56% - - 49° 67.1° 55.3° - - -
4/25 12:40pm 294 8 G 14 65° 55% - - 49° 67.1° 55.3° - - -
4/25 12:30pm 306 8 G 13 66° 54% - - 49° 67.1° 55.3° - - -
4/25 12:20pm 275 5 G 12 65° 54% - - 48° 67.1° 55.3° - - -
4/25 12:10pm 302 6 G 13 66° 51% - - 48° 67.1° 55.3° - - -
4/25 12:00pm 302 6 G 15 66° 52% - - 48° 67.1° 55.3° - - -
4/25 11:50am 288 7 G 11 66° 50% - - 47° 66.5° 55.3° - - -
4/25 11:40am 292 5 G 10 65° 52% - - 47° 66.1° 55.3° - - -
4/25 11:30am 269 5 G 9 65° 52% - - 47° 66.1° 55.3° - - -
4/25 11:20am 225 4 G 8 65° 56% - - 49° 66.1° 55.3° - - -
4/25 11:10am 251 3 G 8 64° 59% - - 49° 65.5° 55.3° - - -
4/25 11:00am 272 3 G 7 63° 60% - - 49° 63.9° 55.3° - - -
4/25 10:50am 263 5 G 9 63° 61% - - 49° 63.9° 55.3° - - -
4/25 10:40am 286 4 G 8 63° 59% - - 49° 63.9° 55.3° - - -
4/25 10:30am 260 4 G 7 62° 61% - - 49° 63.2° 55.3° - - -
4/25 10:20am 226 3 G 6 62° 61% - - 49° 63.2° 55.3° - - -
4/25 10:10am 138 3 G 6 62° 61% - - 49° 63.2° 55.3° - - -
4/25 10:00am 193 3 G 6 60° 66% - - 49° 61.3° 55.3° - - -
4/25 9:50am 224 4 G 8 60° 68% - - 50° 61.3° 55.3° - - -
4/25 9:40am 219 4 G 8 61° 67% - - 49° 61.3° 55.3° - - -
4/25 9:30am 232 4 G 8 61° 66% - - 49° 61.3° 55.3° - - -
4/25 9:20am 243 3 G 7 60° 68% - - 49° 60.6° 55.3° - - -
4/25 9:10am 241 5 G 8 60° 69% - - 50° 60.4° 55.3° - - -
4/25 9:00am 220 4 G 9 60° 69% - - 50° 60.1° 55.3° - - -
4/25 8:50am 209 4 G 7 59° 70% - - 50° 60.1° 55.3° - - -
4/25 8:40am 209 4 G 6 59° 70% - - 50° 59.6° 55.3° - - -
4/25 8:30am 206 3 G 6 59° 74% - - 50° 59.3° 55.3° - - -
4/25 8:20am 162 1 G 4 58° 76% - - 50° 58.3° 55.3° - - -
4/25 8:10am 206 2 G 5 58° 77% - - 51° 58.2° 55.3° - - -
4/25 8:00am 258 3 G 5 57° 78% - - 51° 57.7° 55.3° - - -
4/25 7:50am 224 2 G 4 57° 79% - - 51° 57.7° 55.3° - - -
4/25 7:40am 216 2 G 4 57° 79% - - 51° 57.3° 55.3° - - -
4/25 7:30am 234 3 G 6 56° 82% - - 51° 57° 55.3° - - -
4/25 7:20am 227 3 G 5 56° 82% - - 51° 57° 55.3° - - -
4/25 7:10am 221 2 G 4 56° 82% - - 50° 57° 55.3° - - -
4/25 7:00am 212 2 G 4 56° 83% - - 50° 57° 55.3° - - -
4/25 6:50am 214 2 G 4 56° 81% - - 50° 57° 55.3° - - -
4/25 6:40am 169 2 G 5 56° 79% - - 50° 57° 55.8° - - -
4/25 6:30am 151 3 G 4 56° 79% - - 50° 57° 55.8° - - -
4/25 6:20am 166 3 G 5 56° 80% - - 50° 57° 55.9° - - -
4/25 6:10am 176 3 G 5 56° 80% - - 50° 57° 55.9° - - -
4/25 6:00am 203 2 G 5 56° 79% - - 50° 57° 55.9° - - -
4/25 5:50am 189 3 G 6 56° 79% - - 50° 57° 55.9° - - -
4/25 5:40am 196 4 G 9 56° 78% - - 50° 57° 55.9° - - -
4/25 5:30am 184 4 G 7 56° 78% - - 50° 57° 55.9° - - -
4/25 5:20am 170 4 G 8 56° 77% - - 49° 57° 55.9° - - -
4/25 5:10am 188 3 G 5 56° 78% - - 49° 57° 55.9° - - -
4/25 5:00am 193 4 G 9 56° 77% - - 49° 57° 55.9° - - -
4/25 4:50am 193 3 G 6 57° 77% - - 49° 57° 55.9° - - -
4/25 4:40am 199 4 G 7 56° 77% - - 49° 57° 55.9° - - -
4/25 4:30am 224 3 G 7 56° 78% - - 50° 57° 55.9° - - -
4/25 4:20am 200 3 G 6 57° 76% - - 49° 57° 55.9° - - -
4/25 4:10am 188 3 G 5 56° 77% - - 49° 57° 55.9° - - -
4/25 4:00am 180 4 G 6 56° 77% - - 49° 57° 55.9° - - -
4/25 3:50am 180 4 G 7 56° 77% - - 49° 57° 55.9° - - -
4/25 3:40am 167 3 G 7 56° 78% - - 49° 57° 55.9° - - -
4/25 3:30am 164 4 G 8 56° 78% - - 49° 57° 55.9° - - -
4/25 3:20am 165 5 G 9 56° 77% - - 49° 57° 55.9° - - -
4/25 3:10am 169 4 G 6 56° 76% - - 49° 57° 55.9° - - -
4/25 3:00am 200 3 G 6 56° 77% - - 49° 57° 55.9° - - -
4/25 2:50am 193 3 G 5 56° 77% - - 49° 57° 55.9° - - -
4/25 2:40am 204 3 G 6 56° 78% - - 49° 57° 55.9° - - -
4/25 2:30am 212 3 G 5 56° 78% - - 50° 57° 55.9° - - -
4/25 2:20am 224 4 G 6 56° 78% - - 50° 57° 55.9° - - -
4/25 2:10am 223 4 G 9 56° 78% - - 49° 57° 56° - - -
4/25 2:00am 211 3 G 6 56° 78% - - 50° 57° 56° - - -
4/25 1:50am 202 4 G 9 56° 78% - - 50° 57° 56° - - -
4/25 1:40am 208 3 G 8 57° 78% - - 50° 57° 56° - - -
4/25 1:30am 223 3 G 6 57° 77% - - 50° 57° 56° - - -
4/25 1:20am 212 4 G 6 57° 76% - - 49° 56.8° 56° - - -
4/25 1:10am 203 3 G 5 57° 76% - - 49° 56.8° 56° - - -
4/25 1:00am 175 3 G 6 57° 76% - - 49° 56.8° 56° - - -
4/25 12:50am 165 4 G 7 56° 77% - - 49° 56.6° 56° - - -
4/25 12:40am 163 3 G 6 56° 77% - - 49° 56.5° 56° - - -
4/25 12:30am 156 3 G 6 56° 78% - - 49° 56.5° 56° - - -
4/25 12:20am 159 4 G 7 56° 78% - - 49° 56.5° 56° - - -
4/25 12:10am 184 4 G 7 56° 77% - - 49° 56.5° 56° - - -
4/25 12:00am 186 4 G 8 56° 76% - - 49° 67.4° 54.3° - - -
4/24 11:50pm 224 3 G 6 56° 76% - - 49° 67.4° 54.3° - - -
4/24 11:40pm 236 3 G 7 56° 77% - - 49° 67.4° 54.3° - - -
4/24 11:30pm 241 4 G 9 56° 78% - - 50° 67.4° 54.3° - - -
4/24 11:20pm 231 4 G 9 57° 78% - - 50° 67.4° 54.3° - - -
4/24 11:10pm 203 2 G 5 57° 76% - - 49° 67.4° 54.3° - - -
4/24 11:00pm 174 2 G 4 57° 76% - - 49° 67.4° 54.3° - - -
4/24 10:50pm 174 4 G 7 57° 76% - - 49° 67.4° 54.3° - - -
4/24 10:40pm 172 4 G 7 57° 77% - - 49° 67.4° 54.3° - - -
4/24 10:30pm 180 4 G 7 57° 78% - - 50° 67.4° 54.3° - - -
4/24 10:20pm 217 3 G 6 57° 78% - - 50° 67.4° 54.3° - - -
4/24 10:10pm 231 5 G 7 57° 79% - - 50° 67.4° 54.3° - - -
4/24 10:00pm 236 4 G 7 57° 78% - - 50° 67.4° 54.3° - - -
4/24 9:50pm 204 2 G 4 56° 78% - - 50° 67.4° 54.3° - - -
4/24 9:40pm 198 3 G 5 57° 80% - - 50° 67.4° 54.3° - - -
4/24 9:30pm 202 3 G 6 57° 80% - - 51° 67.4° 54.3° - - -
4/24 9:20pm 212 3 G 7 57° 81% - - 51° 67.4° 54.3° - - -
4/24 9:10pm 227 4 G 7 57° 81% - - 51° 67.4° 54.3° - - -
4/24 9:00pm 226 4 G 7 57° 81% - - 51° 67.4° 54.3° - - -
4/24 8:50pm 241 3 G 6 57° 81% - - 51° 67.4° 54.3° - - -
4/24 8:40pm 245 4 G 7 57° 80% - - 51° 67.4° 54.3° - - -
4/24 8:30pm 249 4 G 6 57° 79% - - 51° 67.4° 54.3° - - -
4/24 8:20pm 257 3 G 7 58° 78% - - 51° 67.4° 54.3° - - -
4/24 8:10pm 286 2 G 4 58° 77% - - 51° 67.4° 54.3° - - -
4/24 8:00pm 278 2 G 5 58° 77% - - 51° 67.4° 54.3° - - -
4/24 7:50pm 290 3 G 7 58° 77% - - 51° 67.4° 54.3° - - -
4/24 7:40pm 292 2 G 3 58° 77% - - 51° 67.4° 54.3° - - -
4/24 7:30pm 301 3 G 7 58° 77% - - 51° 67.4° 54.3° - - -
4/24 7:20pm 277 4 G 6 59° 76% - - 51° 67.4° 54.3° - - -
4/24 7:10pm 271 3 G 6 59° 74% - - 51° 67.4° 54.3° - - -
4/24 7:00pm 268 4 G 6 59° 74% - - 51° 67.4° 54.3° - - -
4/24 6:50pm 243 5 G 8 60° 73% - - 51° 67.4° 54.3° - - -
4/24 6:40pm 255 4 G 8 60° 73% - - 52° 67.4° 54.3° - - -
4/24 6:30pm 250 5 G 9 60° 72% - - 51° 67.4° 54.3° - - -
4/24 6:20pm 235 4 G 8 61° 71% - - 51° 67.4° 54.3° - - -
4/24 6:10pm 261 5 G 10 61° 70% - - 51° 67.4° 54.3° - - -
4/24 6:00pm 247 6 G 10 61° 71% - - 52° 67.4° 54.3° - - -